sensor_id;sensor_type;location;lat;lon;timestamp;pressure;altitude;pressure_sealevel;temperature;humidity
17309;BME280;8772;42.804;23.426;2023-04-02T00:01:45;73469.13;;;-140.58;100.00
17309;BME280;8772;42.804;23.426;2023-04-02T00:04:16;73471.19;;;-140.58;100.00
17309;BME280;8772;42.804;23.426;2023-04-02T00:06:51;73471.19;;;-140.58;100.00
17309;BME280;8772;42.804;23.426;2023-04-02T00:09:28;73473.25;;;-140.58;100.00
17309;BME280;8772;42.804;23.426;2023-04-02T00:11:55;73473.25;;;-140.58;100.00
17309;BME280;8772;42.804;23.426;2023-04-02T00:14:27;73469.13;;;-140.58;100.00
17309;BME280;8772;42.804;23.426;2023-04-02T00:16:57;73477.34;;;-140.58;100.00
17309;BME280;8772;42.804;23.426;2023-04-02T00:19:30;73473.25;;;-140.58;100.00
17309;BME280;8772;42.804;23.426;2023-04-02T00:22:01;73479.38;;;-140.58;100.00
17309;BME280;8772;42.804;23.426;2023-04-02T00:24:28;73489.66;;;-140.58;100.00
17309;BME280;8772;42.804;23.426;2023-04-02T00:26:55;73506.06;;;-140.58;100.00
17309;BME280;8772;42.804;23.426;2023-04-02T00:29:22;73510.16;;;-140.58;100.00
17309;BME280;8772;42.804;23.426;2023-04-02T00:31:50;73518.38;;;-140.58;100.00
17309;BME280;8772;42.804;23.426;2023-04-02T00:34:21;73520.41;;;-140.58;100.00
17309;BME280;8772;42.804;23.426;2023-04-02T00:36:51;73520.41;;;-140.58;100.00
17309;BME280;8772;42.804;23.426;2023-04-02T00:39:21;73514.25;;;-140.58;100.00
17309;BME280;8772;42.804;23.426;2023-04-02T00:41:52;73508.09;;;-140.58;100.00
17309;BME280;8772;42.804;23.426;2023-04-02T00:44:23;73497.84;;;-140.58;100.00
17309;BME280;8772;42.804;23.426;2023-04-02T00:46:55;73493.75;;;-140.58;100.00
17309;BME280;8772;42.804;23.426;2023-04-02T00:49:30;73489.66;;;-140.58;100.00
17309;BME280;8772;42.804;23.426;2023-04-02T00:52:04;73481.44;;;-140.58;100.00
17309;BME280;8772;42.804;23.426;2023-04-02T00:54:38;73473.25;;;-140.58;100.00
17309;BME280;8772;42.804;23.426;2023-04-02T00:57:14;73473.25;;;-140.58;100.00
17309;BME280;8772;42.804;23.426;2023-04-02T00:59:51;73491.69;;;-140.58;100.00
17309;BME280;8772;42.804;23.426;2023-04-02T01:02:23;73477.34;;;-140.58;100.00
17309;BME280;8772;42.804;23.426;2023-04-02T01:08:19;73499.91;;;-140.58;100.00
17309;BME280;8772;42.804;23.426;2023-04-02T01:10:57;73499.91;;;-140.58;100.00
17309;BME280;8772;42.804;23.426;2023-04-02T01:13:32;73518.38;;;-140.58;100.00
17309;BME280;8772;42.804;23.426;2023-04-02T01:16:05;73524.53;;;-140.58;100.00
17309;BME280;8772;42.804;23.426;2023-04-02T01:18:46;73536.81;;;-140.58;100.00
17309;BME280;8772;42.804;23.426;2023-04-02T01:21:36;73557.34;;;-140.58;100.00
17309;BME280;8772;42.804;23.426;2023-04-02T01:24:10;73530.66;;;-140.58;100.00
17309;BME280;8772;42.804;23.426;2023-04-02T01:26:53;73547.09;;;-140.58;100.00
17309;BME280;8772;42.804;23.426;2023-04-02T01:29:25;73555.28;;;-140.58;100.00
17309;BME280;8772;42.804;23.426;2023-04-02T01:31:56;73559.38;;;-140.58;100.00
17309;BME280;8772;42.804;23.426;2023-04-02T01:34:26;73559.38;;;-140.58;100.00
17309;BME280;8772;42.804;23.426;2023-04-02T01:37:07;73571.69;;;-140.58;100.00
17309;BME280;8772;42.804;23.426;2023-04-02T01:39:44;73567.59;;;-140.58;100.00
17309;BME280;8772;42.804;23.426;2023-04-02T01:42:20;73569.66;;;-140.58;100.00
17309;BME280;8772;42.804;23.426;2023-04-02T01:44:50;73565.53;;;-140.58;100.00
17309;BME280;8772;42.804;23.426;2023-04-02T01:47:21;73592.22;;;-140.58;100.00
17309;BME280;8772;42.804;23.426;2023-04-02T01:49:51;73588.09;;;-140.58;100.00
17309;BME280;8772;42.804;23.426;2023-04-02T01:52:25;73608.63;;;-140.58;100.00
17309;BME280;8772;42.804;23.426;2023-04-02T01:55:00;73612.72;;;-140.58;100.00
17309;BME280;8772;42.804;23.426;2023-04-02T01:57:27;73594.25;;;-140.58;100.00
17309;BME280;8772;42.804;23.426;2023-04-02T01:59:58;73618.88;;;-140.58;100.00
17309;BME280;8772;42.804;23.426;2023-04-02T02:02:26;73604.53;;;-140.58;100.00
17309;BME280;8772;42.804;23.426;2023-04-02T02:04:53;73629.13;;;-140.58;100.00
17309;BME280;8772;42.804;23.426;2023-04-02T02:07:20;73629.13;;;-140.58;100.00
17309;BME280;8772;42.804;23.426;2023-04-02T02:09:48;73618.88;;;-140.58;100.00
17309;BME280;8772;42.804;23.426;2023-04-02T02:12:15;73616.81;;;-140.58;100.00
17309;BME280;8772;42.804;23.426;2023-04-02T02:14:45;73606.56;;;-140.58;100.00
17309;BME280;8772;42.804;23.426;2023-04-02T02:17:17;73600.41;;;-140.58;100.00
17309;BME280;8772;42.804;23.426;2023-04-02T02:19:47;73579.91;;;-140.58;100.00
17309;BME280;8772;42.804;23.426;2023-04-02T02:22:20;73569.66;;;-140.58;100.00
17309;BME280;8772;42.804;23.426;2023-04-02T02:24:48;73563.50;;;-140.58;100.00
17309;BME280;8772;42.804;23.426;2023-04-02T02:27:39;73571.69;;;-140.58;100.00
17309;BME280;8772;42.804;23.426;2023-04-02T02:30:13;73584.00;;;-140.58;100.00
17309;BME280;8772;42.804;23.426;2023-04-02T02:32:47;73588.09;;;-140.58;100.00
17309;BME280;8772;42.804;23.426;2023-04-02T02:35:19;73584.00;;;-140.58;100.00
17309;BME280;8772;42.804;23.426;2023-04-02T02:37:52;73598.38;;;-140.58;100.00
17309;BME280;8772;42.804;23.426;2023-04-02T02:40:27;73596.31;;;-140.58;100.00
17309;BME280;8772;42.804;23.426;2023-04-02T02:42:56;73606.56;;;-140.58;100.00
17309;BME280;8772;42.804;23.426;2023-04-02T02:45:28;73618.88;;;-140.58;100.00
17309;BME280;8772;42.804;23.426;2023-04-02T02:48:00;73612.72;;;-140.58;100.00
17309;BME280;8772;42.804;23.426;2023-04-02T02:50:29;73633.25;;;-140.58;100.00
17309;BME280;8772;42.804;23.426;2023-04-02T02:52:59;73625.03;;;-140.58;100.00
17309;BME280;8772;42.804;23.426;2023-04-02T02:55:31;73639.38;;;-140.58;100.00
17309;BME280;8772;42.804;23.426;2023-04-02T02:58:01;73629.13;;;-140.58;100.00
17309;BME280;8772;42.804;23.426;2023-04-02T03:00:29;73649.66;;;-140.58;100.00
17309;BME280;8772;42.804;23.426;2023-04-02T03:02:56;73647.59;;;-140.58;100.00
17309;BME280;8772;42.804;23.426;2023-04-02T03:05:26;73661.97;;;-140.58;100.00
17309;BME280;8772;42.804;23.426;2023-04-02T03:07:55;73653.75;;;-140.58;100.00
17309;BME280;8772;42.804;23.426;2023-04-02T03:10:30;73659.91;;;-140.58;100.00
17309;BME280;8772;42.804;23.426;2023-04-02T03:13:04;73657.84;;;-140.58;100.00
17309;BME280;8772;42.804;23.426;2023-04-02T03:15:37;73678.38;;;-140.58;100.00
17309;BME280;8772;42.804;23.426;2023-04-02T03:18:11;73674.25;;;-140.58;100.00
17309;BME280;8772;42.804;23.426;2023-04-02T03:20:45;73670.16;;;-140.58;100.00
17309;BME280;8772;42.804;23.426;2023-04-02T03:23:18;73688.63;;;-140.58;100.00
17309;BME280;8772;42.804;23.426;2023-04-02T03:25:51;73715.28;;;-140.58;100.00
17309;BME280;8772;42.804;23.426;2023-04-02T03:28:26;73698.88;;;-140.58;100.00
17309;BME280;8772;42.804;23.426;2023-04-02T03:30:56;73698.88;;;-140.58;100.00
17309;BME280;8772;42.804;23.426;2023-04-02T03:33:27;73694.78;;;-140.58;100.00
17309;BME280;8772;42.804;23.426;2023-04-02T03:36:01;73715.28;;;-140.58;100.00
17309;BME280;8772;42.804;23.426;2023-04-02T03:38:30;73715.28;;;-140.58;100.00
17309;BME280;8772;42.804;23.426;2023-04-02T03:41:02;73709.13;;;-140.58;100.00
17309;BME280;8772;42.804;23.426;2023-04-02T03:43:33;73702.97;;;-140.58;100.00
17309;BME280;8772;42.804;23.426;2023-04-02T03:46:12;73711.19;;;-140.58;100.00
17309;BME280;8772;42.804;23.426;2023-04-02T03:48:44;73713.25;;;-140.58;100.00
17309;BME280;8772;42.804;23.426;2023-04-02T03:51:16;73735.81;;;-140.58;100.00
17309;BME280;8772;42.804;23.426;2023-04-02T03:53:46;73739.91;;;-140.58;100.00
17309;BME280;8772;42.804;23.426;2023-04-02T03:56:23;73731.72;;;-140.58;100.00
17309;BME280;8772;42.804;23.426;2023-04-02T03:58:55;73748.13;;;-140.58;100.00
17309;BME280;8772;42.804;23.426;2023-04-02T04:01:31;73744.00;;;-140.58;100.00
17309;BME280;8772;42.804;23.426;2023-04-02T04:04:03;73752.22;;;-140.58;100.00
17309;BME280;8772;42.804;23.426;2023-04-02T04:06:34;73731.72;;;-140.58;100.00
17309;BME280;8772;42.804;23.426;2023-04-02T04:09:07;73739.91;;;-140.58;100.00
17309;BME280;8772;42.804;23.426;2023-04-02T04:11:38;73744.00;;;-140.58;100.00
17309;BME280;8772;42.804;23.426;2023-04-02T04:14:14;73772.72;;;-140.58;100.00
17309;BME280;8772;42.804;23.426;2023-04-02T04:16:45;73768.63;;;-140.58;100.00
17309;BME280;8772;42.804;23.426;2023-04-02T04:19:21;73760.44;;;-140.58;100.00
17309;BME280;8772;42.804;23.426;2023-04-02T04:22:07;73764.53;;;-140.58;100.00
17309;BME280;8772;42.804;23.426;2023-04-02T04:24:34;73756.31;;;-140.58;100.00
17309;BME280;8772;42.804;23.426;2023-04-02T04:27:07;73768.63;;;-140.58;100.00
17309;BME280;8772;42.804;23.426;2023-04-02T04:29:43;73780.94;;;-140.58;100.00
17309;BME280;8772;42.804;23.426;2023-04-02T04:32:18;73795.28;;;-140.58;100.00
17309;BME280;8772;42.804;23.426;2023-04-02T04:34:54;73797.34;;;-140.58;100.00
17309;BME280;8772;42.804;23.426;2023-04-02T04:37:27;73803.50;;;-140.58;100.00
17309;BME280;8772;42.804;23.426;2023-04-02T04:40:01;73817.88;;;-140.58;100.00
17309;BME280;8772;42.804;23.426;2023-04-02T04:42:32;73819.91;;;-140.58;100.00
17309;BME280;8772;42.804;23.426;2023-04-02T04:45:07;73821.97;;;-140.58;100.00
17309;BME280;8772;42.804;23.426;2023-04-02T04:47:39;73832.22;;;-140.58;100.00
17309;BME280;8772;42.804;23.426;2023-04-02T04:50:12;73826.06;;;-140.58;100.00
17309;BME280;8772;42.804;23.426;2023-04-02T04:52:42;73836.31;;;-140.58;100.00
17309;BME280;8772;42.804;23.426;2023-04-02T04:55:26;73805.56;;;-140.58;100.00
17309;BME280;8772;42.804;23.426;2023-04-02T04:57:57;73817.88;;;-140.58;100.00
17309;BME280;8772;42.804;23.426;2023-04-02T05:00:31;73813.75;;;-140.58;100.00
17309;BME280;8772;42.804;23.426;2023-04-02T05:03:05;73821.97;;;-140.58;100.00
17309;BME280;8772;42.804;23.426;2023-04-02T05:05:37;73813.75;;;-140.58;100.00
17309;BME280;8772;42.804;23.426;2023-04-02T05:08:12;73809.66;;;-140.58;100.00
17309;BME280;8772;42.804;23.426;2023-04-02T05:10:43;73793.25;;;-140.58;100.00
17309;BME280;8772;42.804;23.426;2023-04-02T05:13:16;73776.84;;;-140.58;100.00
17309;BME280;8772;42.804;23.426;2023-04-02T05:15:51;73766.56;;;-140.58;100.00
17309;BME280;8772;42.804;23.426;2023-04-02T05:18:24;73744.00;;;-140.58;100.00
17309;BME280;8772;42.804;23.426;2023-04-02T05:20:57;73733.75;;;-140.58;100.00
17309;BME280;8772;42.804;23.426;2023-04-02T05:23:29;73735.81;;;-140.58;100.00
17309;BME280;8772;42.804;23.426;2023-04-02T05:26:02;73731.72;;;-140.58;100.00
17309;BME280;8772;42.804;23.426;2023-04-02T05:28:34;73709.13;;;-140.58;100.00
17309;BME280;8772;42.804;23.426;2023-04-02T05:31:06;73723.50;;;-140.58;100.00
17309;BME280;8772;42.804;23.426;2023-04-02T05:33:36;73717.34;;;-140.58;100.00
17309;BME280;8772;42.804;23.426;2023-04-02T05:36:07;73707.09;;;-140.58;100.00
17309;BME280;8772;42.804;23.426;2023-04-02T05:38:39;73690.69;;;-140.58;100.00
17309;BME280;8772;42.804;23.426;2023-04-02T05:41:19;73670.16;;;-140.58;100.00
17309;BME280;8772;42.804;23.426;2023-04-02T05:43:50;73649.66;;;-140.58;100.00
17309;BME280;8772;42.804;23.426;2023-04-02T05:46:25;73633.25;;;-140.58;100.00
17309;BME280;8772;42.804;23.426;2023-04-02T05:48:56;73612.72;;;-140.58;100.00
17309;BME280;8772;42.804;23.426;2023-04-02T05:51:29;73592.22;;;-140.58;100.00
17309;BME280;8772;42.804;23.426;2023-04-02T05:53:59;73569.66;;;-140.58;100.00
17309;BME280;8772;42.804;23.426;2023-04-02T05:56:29;73557.34;;;-140.58;100.00
17309;BME280;8772;42.804;23.426;2023-04-02T05:59:03;73547.09;;;-140.58;100.00
17309;BME280;8772;42.804;23.426;2023-04-02T06:01:38;73522.47;;;-140.58;100.00
17309;BME280;8772;42.804;23.426;2023-04-02T06:04:15;73506.06;;;-140.58;100.00
17309;BME280;8772;42.804;23.426;2023-04-02T06:06:49;73485.53;;;-140.58;100.00
17309;BME280;8772;42.804;23.426;2023-04-02T06:09:26;73477.34;;;-140.58;100.00
17309;BME280;8772;42.804;23.426;2023-04-02T06:11:59;73458.88;;;-140.58;100.00
17309;BME280;8772;42.804;23.426;2023-04-02T06:14:28;73442.47;;;-140.58;100.00
17309;BME280;8772;42.804;23.426;2023-04-02T06:16:55;73409.66;;;-140.58;100.00
17309;BME280;8772;42.804;23.426;2023-04-02T06:19:26;73378.88;;;-140.58;100.00
17309;BME280;8772;42.804;23.426;2023-04-02T06:21:58;73352.22;;;-140.58;100.00
17309;BME280;8772;42.804;23.426;2023-04-02T06:24:28;73327.59;;;-140.58;100.00
17309;BME280;8772;42.804;23.426;2023-04-02T06:26:58;73305.03;;;-140.58;100.00
17309;BME280;8772;42.804;23.426;2023-04-02T06:29:31;73282.47;;;-140.58;100.00
17309;BME280;8772;42.804;23.426;2023-04-02T06:32:05;73251.72;;;-140.58;100.00
17309;BME280;8772;42.804;23.426;2023-04-02T06:34:35;73243.50;;;-140.58;92.77
17309;BME280;8772;42.804;23.426;2023-04-02T06:37:13;73223.00;;;-140.58;87.64
17309;BME280;8772;42.804;23.426;2023-04-02T06:39:43;73202.47;;;-140.58;87.96
17309;BME280;8772;42.804;23.426;2023-04-02T06:42:12;73184.03;;;-140.58;89.22
17309;BME280;8772;42.804;23.426;2023-04-02T06:44:41;73169.66;;;-140.58;87.84
17309;BME280;8772;42.804;23.426;2023-04-02T06:47:15;73143.00;;;-140.58;82.87
17309;BME280;8772;42.804;23.426;2023-04-02T06:49:46;73130.69;;;-140.58;83.40
17309;BME280;8772;42.804;23.426;2023-04-02T06:52:21;73124.53;;;-140.58;83.26
17309;BME280;8772;42.804;23.426;2023-04-02T06:54:50;73108.13;;;-140.58;79.64
17309;BME280;8772;42.804;23.426;2023-04-02T06:57:17;73110.19;;;-140.58;84.05
17309;BME280;8772;42.804;23.426;2023-04-02T06:59:44;73089.69;;;-140.58;80.92
17309;BME280;8772;42.804;23.426;2023-04-02T07:02:23;73083.53;;;-140.58;83.02
17309;BME280;8772;42.804;23.426;2023-04-02T07:04:56;73075.31;;;-140.58;83.07
17309;BME280;8772;42.804;23.426;2023-04-02T07:07:24;73058.91;;;-140.58;77.23
17309;BME280;8772;42.804;23.426;2023-04-02T07:09:53;73046.59;;;-140.58;69.75
17309;BME280;8772;42.804;23.426;2023-04-02T07:12:21;73038.41;;;-140.58;74.27
17309;BME280;8772;42.804;23.426;2023-04-02T07:14:49;73040.44;;;-140.58;72.73
17309;BME280;8772;42.804;23.426;2023-04-02T07:17:16;73013.78;;;-140.58;67.04
17309;BME280;8772;42.804;23.426;2023-04-02T07:19:44;73015.84;;;-140.58;68.63
17309;BME280;8772;42.804;23.426;2023-04-02T07:22:14;73007.63;;;-140.58;76.64
17309;BME280;8772;42.804;23.426;2023-04-02T07:24:41;72997.38;;;-140.58;74.07
17309;BME280;8772;42.804;23.426;2023-04-02T07:27:10;72976.88;;;-140.58;71.57
17309;BME280;8772;42.804;23.426;2023-04-02T07:29:37;72952.25;;;-140.58;73.69
17309;BME280;8772;42.804;23.426;2023-04-02T07:32:07;72956.38;;;-140.58;68.29
17309;BME280;8772;42.804;23.426;2023-04-02T07:34:34;72931.75;;;-140.58;72.24
17309;BME280;8772;42.804;23.426;2023-04-02T07:37:01;72915.34;;;-140.58;68.11
17309;BME280;8772;42.804;23.426;2023-04-02T07:39:28;72923.56;;;-140.58;69.88
17309;BME280;8772;42.804;23.426;2023-04-02T07:41:57;72890.72;;;-140.58;69.77
17309;BME280;8772;42.804;23.426;2023-04-02T07:44:25;72874.31;;;-140.58;69.32
17309;BME280;8772;42.804;23.426;2023-04-02T07:46:52;72853.81;;;-140.58;66.66
17309;BME280;8772;42.804;23.426;2023-04-02T07:49:20;72833.31;;;-140.58;64.02
17309;BME280;8772;42.804;23.426;2023-04-02T07:51:48;72804.59;;;-140.58;64.69
17309;BME280;8772;42.804;23.426;2023-04-02T07:54:15;72796.41;;;-140.58;62.79
17309;BME280;8772;42.804;23.426;2023-04-02T07:56:41;72775.88;;;-140.58;53.98
17309;BME280;8772;42.804;23.426;2023-04-02T07:59:08;72771.78;;;-140.58;55.16
17309;BME280;8772;42.804;23.426;2023-04-02T08:01:37;72747.19;;;-140.58;51.49
17309;BME280;8772;42.804;23.426;2023-04-02T08:04:04;72734.88;;;-140.58;51.74
17309;BME280;8772;42.804;23.426;2023-04-02T08:06:32;72730.78;;;-140.58;52.12
17309;BME280;8772;42.804;23.426;2023-04-02T08:08:59;72718.47;;;-140.58;50.43
17309;BME280;8772;42.804;23.426;2023-04-02T08:11:25;72716.41;;;-140.58;52.57
17309;BME280;8772;42.804;23.426;2023-04-02T08:13:52;72700.00;;;-140.58;50.32
17309;BME280;8772;42.804;23.426;2023-04-02T08:16:19;72681.53;;;-140.58;50.47
17309;BME280;8772;42.804;23.426;2023-04-02T08:18:49;72673.34;;;-140.58;50.23
17309;BME280;8772;42.804;23.426;2023-04-02T08:21:16;72661.03;;;-140.58;49.58
17309;BME280;8772;42.804;23.426;2023-04-02T08:23:43;72630.28;;;-140.58;47.76
17309;BME280;8772;42.804;23.426;2023-04-02T08:26:15;72620.03;;;-140.58;49.55
17309;BME280;8772;42.804;23.426;2023-04-02T08:28:43;72615.94;;;-140.58;48.85
17309;BME280;8772;42.804;23.426;2023-04-02T08:31:10;72583.13;;;-140.58;48.36
17309;BME280;8772;42.804;23.426;2023-04-02T08:33:37;72579.00;;;-140.58;45.88
17309;BME280;8772;42.804;23.426;2023-04-02T08:36:06;72566.72;;;-140.58;46.15
17309;BME280;8772;42.804;23.426;2023-04-02T08:38:33;72574.91;;;-140.58;46.60
17309;BME280;8772;42.804;23.426;2023-04-02T08:41:01;72546.19;;;-140.58;46.52
17309;BME280;8772;42.804;23.426;2023-04-02T08:43:40;72533.91;;;-140.58;46.72
17309;BME280;8772;42.804;23.426;2023-04-02T08:46:17;72529.78;;;-140.58;44.99
17309;BME280;8772;42.804;23.426;2023-04-02T08:48:50;72505.19;;;-140.58;46.23
17309;BME280;8772;42.804;23.426;2023-04-02T08:51:24;72482.63;;;-140.58;46.03
17309;BME280;8772;42.804;23.426;2023-04-02T08:53:54;72460.06;;;-140.58;44.95
17309;BME280;8772;42.804;23.426;2023-04-02T08:56:28;72460.06;;;-140.58;43.55
17309;BME280;8772;42.804;23.426;2023-04-02T08:58:58;72449.81;;;-140.58;43.60
17309;BME280;8772;42.804;23.426;2023-04-02T09:01:35;72419.06;;;-140.58;42.82
17309;BME280;8772;42.804;23.426;2023-04-02T09:04:13;72392.41;;;-140.58;43.30
17309;BME280;8772;42.804;23.426;2023-04-02T09:06:42;72390.34;;;-140.58;44.16
17309;BME280;8772;42.804;23.426;2023-04-02T09:09:10;72369.84;;;-140.58;43.32
17309;BME280;8772;42.804;23.426;2023-04-02T09:11:43;72341.13;;;-140.58;40.57
17309;BME280;8772;42.804;23.426;2023-04-02T09:14:16;72349.34;;;-140.58;41.27
17309;BME280;8772;42.804;23.426;2023-04-02T09:16:47;72337.03;;;-140.58;41.61
17309;BME280;8772;42.804;23.426;2023-04-02T09:19:20;72312.44;;;-140.58;41.50
17309;BME280;8772;42.804;23.426;2023-04-02T09:21:58;72322.69;;;-140.58;40.14
17309;BME280;8772;42.804;23.426;2023-04-02T09:24:28;72328.84;;;-140.58;39.77
17309;BME280;8772;42.804;23.426;2023-04-02T09:26:55;72332.94;;;-140.58;40.34
17309;BME280;8772;42.804;23.426;2023-04-02T09:29:39;72328.84;;;-140.58;39.84
17309;BME280;8772;42.804;23.426;2023-04-02T09:32:39;72312.44;;;-140.58;39.50
17309;BME280;8772;42.804;23.426;2023-04-02T09:35:13;72312.44;;;-140.58;40.21
17309;BME280;8772;42.804;23.426;2023-04-02T09:37:42;72263.22;;;-140.58;39.64
17309;BME280;8772;42.804;23.426;2023-04-02T09:40:18;72275.53;;;-140.58;37.22
17309;BME280;8772;42.804;23.426;2023-04-02T09:42:49;72250.91;;;-140.58;38.27
17309;BME280;8772;42.804;23.426;2023-04-02T09:45:26;72242.72;;;-140.58;38.67
17309;BME280;8772;42.804;23.426;2023-04-02T09:47:54;72234.50;;;-140.58;36.78
17309;BME280;8772;42.804;23.426;2023-04-02T09:50:25;72218.09;;;-140.58;37.00
17309;BME280;8772;42.804;23.426;2023-04-02T09:52:54;72222.22;;;-140.58;39.41
17309;BME280;8772;42.804;23.426;2023-04-02T09:55:24;72205.81;;;-140.58;36.94
17309;BME280;8772;42.804;23.426;2023-04-02T09:58:15;72185.28;;;-140.58;37.11
17309;BME280;8772;42.804;23.426;2023-04-02T10:00:49;72160.69;;;-140.58;35.89
17309;BME280;8772;42.804;23.426;2023-04-02T10:03:23;72158.66;;;-140.58;35.49
17309;BME280;8772;42.804;23.426;2023-04-02T10:06:06;72177.09;;;-140.58;36.53
17309;BME280;8772;42.804;23.426;2023-04-02T10:08:37;72193.50;;;-140.58;36.27
17309;BME280;8772;42.804;23.426;2023-04-02T10:11:07;72195.56;;;-140.58;36.24
17309;BME280;8772;42.804;23.426;2023-04-02T10:13:45;72201.69;;;-140.58;34.33
17309;BME280;8772;42.804;23.426;2023-04-02T10:16:17;72218.09;;;-140.58;35.63
17309;BME280;8772;42.804;23.426;2023-04-02T10:18:48;72197.59;;;-140.58;36.99
17309;BME280;8772;42.804;23.426;2023-04-02T10:21:18;72193.50;;;-140.58;34.99
17309;BME280;8772;42.804;23.426;2023-04-02T10:23:50;72193.50;;;-140.58;35.45
17309;BME280;8772;42.804;23.426;2023-04-02T10:26:35;72173.00;;;-140.58;34.81
17309;BME280;8772;42.804;23.426;2023-04-02T10:29:17;72156.59;;;-140.58;34.94
17309;BME280;8772;42.804;23.426;2023-04-02T10:31:52;72142.25;;;-140.58;34.61
17309;BME280;8772;42.804;23.426;2023-04-02T10:34:28;72148.38;;;-140.58;35.26
17309;BME280;8772;42.804;23.426;2023-04-02T10:37:11;72154.53;;;-140.58;35.70
17309;BME280;8772;42.804;23.426;2023-04-02T10:39:49;72160.69;;;-140.58;36.52
17309;BME280;8772;42.804;23.426;2023-04-02T10:42:24;72144.28;;;-140.58;36.22
17309;BME280;8772;42.804;23.426;2023-04-02T10:44:56;72111.47;;;-140.58;35.63
17309;BME280;8772;42.804;23.426;2023-04-02T10:47:32;72066.38;;;-140.58;32.77
17309;BME280;8772;42.804;23.426;2023-04-02T10:50:17;72090.97;;;-140.58;33.88
17309;BME280;8772;42.804;23.426;2023-04-02T10:52:54;72093.03;;;-140.58;33.29
17309;BME280;8772;42.804;23.426;2023-04-02T10:55:29;72109.44;;;-140.58;34.86
17309;BME280;8772;42.804;23.426;2023-04-02T10:58:02;72099.19;;;-140.58;34.63
17309;BME280;8772;42.804;23.426;2023-04-02T11:00:36;72078.69;;;-140.58;32.68
17309;BME280;8772;42.804;23.426;2023-04-02T11:03:11;72076.63;;;-140.58;32.43
17309;BME280;8772;42.804;23.426;2023-04-02T11:05:41;72043.81;;;-140.58;32.65
17309;BME280;8772;42.804;23.426;2023-04-02T11:08:15;72043.81;;;-140.58;33.44
17309;BME280;8772;42.804;23.426;2023-04-02T11:10:48;72056.13;;;-140.58;32.61
17309;BME280;8772;42.804;23.426;2023-04-02T11:13:20;72074.56;;;-140.58;32.08
17309;BME280;8772;42.804;23.426;2023-04-02T11:15:48;72086.88;;;-140.58;33.80
17309;BME280;8772;42.804;23.426;2023-04-02T11:18:21;72064.31;;;-140.58;32.80
17309;BME280;8772;42.804;23.426;2023-04-02T11:21:00;72039.72;;;-140.58;33.44
17309;BME280;8772;42.804;23.426;2023-04-02T11:23:33;72033.56;;;-140.58;32.97
17309;BME280;8772;42.804;23.426;2023-04-02T11:26:31;72045.88;;;-140.58;32.46
17309;BME280;8772;42.804;23.426;2023-04-02T11:29:04;72058.16;;;-140.58;32.47
17309;BME280;8772;42.804;23.426;2023-04-02T11:31:32;72060.22;;;-140.58;31.72
17309;BME280;8772;42.804;23.426;2023-04-02T11:33:59;72041.78;;;-140.58;31.92
17309;BME280;8772;42.804;23.426;2023-04-02T11:37:01;72015.13;;;-140.58;32.45
17309;BME280;8772;42.804;23.426;2023-04-02T11:39:46;72006.91;;;-140.58;31.82
17309;BME280;8772;42.804;23.426;2023-04-02T11:42:32;72004.88;;;-140.58;30.64
17309;BME280;8772;42.804;23.426;2023-04-02T11:50:53;71933.09;;;-140.58;32.73
17309;BME280;8772;42.804;23.426;2023-04-02T11:53:25;71918.75;;;-140.58;31.98
17309;BME280;8772;42.804;23.426;2023-04-02T11:56:18;71902.34;;;-140.58;32.11
17309;BME280;8772;42.804;23.426;2023-04-02T11:58:59;71879.78;;;-140.58;32.08
17309;BME280;8772;42.804;23.426;2023-04-02T12:01:40;71867.50;;;-140.58;31.73
17309;BME280;8772;42.804;23.426;2023-04-02T12:10:20;71888.00;;;-140.58;29.67
17309;BME280;8772;42.804;23.426;2023-04-02T12:12:47;71906.44;;;-140.58;30.08
17309;BME280;8772;42.804;23.426;2023-04-02T12:15:42;71910.53;;;-140.58;30.51
17309;BME280;8772;42.804;23.426;2023-04-02T12:18:13;71892.09;;;-140.58;31.40
17309;BME280;8772;42.804;23.426;2023-04-02T12:20:45;71869.53;;;-140.58;30.70
17309;BME280;8772;42.804;23.426;2023-04-02T12:23:17;71849.03;;;-140.58;30.89
17309;BME280;8772;42.804;23.426;2023-04-02T12:25:52;71842.88;;;-140.58;31.00
17309;BME280;8772;42.804;23.426;2023-04-02T12:28:21;71844.94;;;-140.58;31.09
17309;BME280;8772;42.804;23.426;2023-04-02T12:31:01;71844.94;;;-140.58;32.07
17309;BME280;8772;42.804;23.426;2023-04-02T12:33:31;71853.13;;;-140.58;30.93
17309;BME280;8772;42.804;23.426;2023-04-02T12:36:03;71844.94;;;-140.58;30.69
17309;BME280;8772;42.804;23.426;2023-04-02T12:38:33;71902.34;;;-140.58;30.18
17309;BME280;8772;42.804;23.426;2023-04-02T12:41:02;71853.13;;;-140.58;30.94
17309;BME280;8772;42.804;23.426;2023-04-02T12:43:31;71844.94;;;-140.58;29.42
17309;BME280;8772;42.804;23.426;2023-04-02T12:46:03;71853.13;;;-140.58;30.14
17309;BME280;8772;42.804;23.426;2023-04-02T12:48:32;71853.13;;;-140.58;30.52
17309;BME280;8772;42.804;23.426;2023-04-02T12:51:00;71832.63;;;-140.58;29.80
17309;BME280;8772;42.804;23.426;2023-04-02T12:53:32;71857.25;;;-140.58;29.44
17309;BME280;8772;42.804;23.426;2023-04-02T12:56:00;71865.44;;;-140.58;29.47
17309;BME280;8772;42.804;23.426;2023-04-02T12:58:31;71853.13;;;-140.58;30.77
17309;BME280;8772;42.804;23.426;2023-04-02T13:01:14;71832.63;;;-140.58;29.20
17309;BME280;8772;42.804;23.426;2023-04-02T13:03:42;71828.53;;;-140.58;30.14
17309;BME280;8772;42.804;23.426;2023-04-02T13:06:20;71824.44;;;-140.58;30.68
17309;BME280;8772;42.804;23.426;2023-04-02T13:08:48;71799.84;;;-140.58;29.84
17309;BME280;8772;42.804;23.426;2023-04-02T13:11:16;71816.22;;;-140.58;28.97
17309;BME280;8772;42.804;23.426;2023-04-02T13:13:44;71828.53;;;-140.58;28.26
17309;BME280;8772;42.804;23.426;2023-04-02T13:16:31;71849.03;;;-140.58;29.05
17309;BME280;8772;42.804;23.426;2023-04-02T13:19:21;71849.03;;;-140.58;29.47